Salten — LMFM — position and weather

sailwx.info

Track history (hours):
 
Tides and Currents Weather Stations Pressure Air Temp Water Temp Dewpoint Dewpoint Depression Visibility Wind Speed Wind Dir Waves Ship Positions

Salten

Last reported at 2014-Dec-17 15:22 UTC. Time now 2014-Dec-18 05:47 UTC.
Position N 67°10' E 014°02'.

Length 41 m; draft 1.5 m.

Type: High speed craft. MMSI: 259387000.

Date/timePositionNaut miles runAvg speedWind from/ knotsBaromVisibWave heightAir tempDewpointWater temp
2014-Dec-17 15:22N 67°10' E 014°02'1114.0
2014-Dec-17 14:34N 67°17' E 014°24'1 0.7
2014-Dec-17 13:34N 67°17' E 014°22'0 0.0
2014-Dec-17 12:34N 67°17' E 014°22'0 0.0
2014-Dec-17 11:34N 67°17' E 014°22'0 0.0
2014-Dec-17 10:34N 67°17' E 014°22'0 0.0
2014-Dec-17 09:34N 67°17' E 014°22'10 9.7
2014-Dec-17 08:34N 67°26' E 014°33'3 0.2
2014-Dec-16 16:34N 67°25' E 014°26'8 7.9
2014-Dec-16 15:34N 67°17' E 014°22'0 0.0
2014-Dec-16 14:34N 67°17' E 014°22'0 0.0
2014-Dec-16 13:33N 67°17' E 014°22'0 0.0
2014-Dec-16 12:34N 67°17' E 014°22'0 0.0
2014-Dec-16 11:30N 67°17' E 014°22'5814.2
2014-Dec-16 07:24N 66°29' E 012°58'9 0.7
2014-Dec-15 19:29N 66°21' E 012°51'5313.3
2014-Dec-15 15:30N 67°06' E 013°59'1414.9
2014-Dec-15 14:34N 67°17' E 014°23'0 0.2
2014-Dec-15 13:34N 67°17' E 014°22'0 0.0
2014-Dec-15 12:33N 67°17' E 014°22'0 0.0
2014-Dec-15 11:34N 67°17' E 014°22'5714.0
2014-Dec-15 07:27N 66°30' E 012°59'10 0.7
2014-Dec-14 16:18N 66°20' E 012°53'5714.5
2014-Dec-14 12:22N 67°10' E 014°03'1113.0
2014-Dec-14 11:34N 67°17' E 014°22'0 0.0
2014-Dec-14 10:34N 67°17' E 014°22'0 0.0
2014-Dec-14 09:34N 67°17' E 014°22'0 0.0
2014-Dec-14 08:34N 67°17' E 014°22'0 0.0
2014-Dec-14 07:34N 67°17' E 014°22'0 0.0
2014-Dec-14 06:34N 67°17' E 014°22'0 0.0
2014-Dec-14 05:34N 67°17' E 014°22'0 0.0
2014-Dec-14 04:34N 67°17' E 014°22'0 0.0
2014-Dec-14 03:34N 67°17' E 014°22'0 0.0
2014-Dec-14 02:34N 67°17' E 014°22'0 0.0
2014-Dec-14 01:34N 67°17' E 014°22'0 0.0
2014-Dec-14 00:34N 67°17' E 014°22'0 0.0
2014-Dec-13 23:34N 67°17' E 014°22'0 0.0
2014-Dec-13 22:34N 67°17' E 014°22'0 0.0
2014-Dec-13 21:34N 67°17' E 014°22'0 0.0
2014-Dec-13 20:34N 67°17' E 014°22'0 0.0
2014-Dec-13 19:34N 67°17' E 014°22'0 0.0
2014-Dec-13 18:34N 67°17' E 014°22'0 0.0
2014-Dec-13 17:34N 67°17' E 014°22'0 0.0
2014-Dec-13 16:34N 67°17' E 014°22'0 0.0
2014-Dec-13 15:34N 67°17' E 014°22'0 0.0
2014-Dec-13 14:34N 67°17' E 014°22'0 0.0
2014-Dec-13 13:34N 67°17' E 014°22'0 0.0
2014-Dec-13 12:34N 67°17' E 014°22'0 0.0
2014-Dec-13 11:34N 67°17' E 014°22'0 0.0
2014-Dec-13 10:34N 67°17' E 014°22'1 0.6
2014-Dec-13 09:34N 67°17' E 014°24'12 0.8
2014-Dec-12 17:34N 67°29' E 014°36'1313.0
2014-Dec-12 16:34N 67°17' E 014°22'8 4.1
2014-Dec-12 14:34N 67°25' E 014°28'8 8.3
2014-Dec-12 13:34N 67°17' E 014°22'0 0.0
2014-Dec-12 12:34N 67°17' E 014°22'0 0.0
2014-Dec-12 11:34N 67°17' E 014°22'0 0.0
2014-Dec-12 10:34N 67°17' E 014°22'0 0.0
2014-Dec-12 09:34N 67°17' E 014°22'1211.6
2014-Dec-12 08:32N 67°28' E 014°35'11 0.7
2014-Dec-11 17:05N 67°38' E 014°46'1528.3
2014-Dec-11 16:34N 67°24' E 014°31'8 7.8
2014-Dec-11 15:33N 67°17' E 014°22'0 0.0
2014-Dec-11 14:33N 67°17' E 014°22'0 0.0
2014-Dec-11 13:34N 67°17' E 014°22'0 0.0
2014-Dec-11 12:33N 67°17' E 014°22'0 0.0
2014-Dec-11 11:33N 67°17' E 014°22'8 8.0
2014-Dec-11 10:33N 67°12' E 014°08'3617.0
2014-Dec-11 08:26N 66°42' E 013°16'1314.4
2014-Dec-11 07:33N 66°31' E 013°00'2417.5
2014-Dec-11 06:10N 66°07' E 012°46'0 0.0
2014-Dec-10 20:22N 66°07' E 012°45'1719.4
2014-Dec-10 19:30N 66°24' E 012°49'4112.1
2014-Dec-10 16:07N 66°60' E 013°37'1222.1
2014-Dec-10 15:33N 67°07' E 014°03'1312.9
2014-Dec-10 14:33N 67°17' E 014°24'1 0.7
2014-Dec-10 13:33N 67°17' E 014°22'0 0.0
2014-Dec-10 12:33N 67°17' E 014°22'0 0.0
2014-Dec-10 11:33N 67°17' E 014°22'0 0.0
2014-Dec-10 10:33N 67°17' E 014°22'0 0.0
2014-Dec-10 09:33N 67°17' E 014°22'21 1.4
2014-Dec-09 18:07N 67°38' E 014°39'1831.8
2014-Dec-09 17:34N 67°21' E 014°24'4 3.8
2014-Dec-09 16:33N 67°17' E 014°22'0 0.0
2014-Dec-09 15:33N 67°17' E 014°22'0 0.0
2014-Dec-09 14:33N 67°17' E 014°22'0 0.0
2014-Dec-09 13:33N 67°17' E 014°22'0 0.0
2014-Dec-09 12:33N 67°17' E 014°22'0 0.0
2014-Dec-09 11:33N 67°17' E 014°22'1110.6
2014-Dec-09 10:32N 67°10' E 014°02'4615.1
2014-Dec-09 07:30N 66°31' E 012°59'10 0.9
2014-Dec-08 19:33N 66°21' E 012°59'5112.7
2014-Dec-08 15:32N 67°06' E 013°58'1414.9
2014-Dec-08 14:33N 67°17' E 014°22'0 0.0
2014-Dec-08 13:33N 67°17' E 014°22'0 0.0
2014-Dec-08 12:33N 67°17' E 014°22'0 0.0
2014-Dec-08 11:33N 67°17' E 014°22'8 8.3
2014-Dec-08 10:33N 67°11' E 014°07'5415.9
2014-Dec-08 07:07N 66°26' E 012°49'6 0.4
2014-Dec-07 16:21N 66°20' E 012°52'  
Track history (hours):
 
Tides and Currents Weather Stations Pressure Air Temp Water Temp Dewpoint Dewpoint Depression Visibility Wind Speed Wind Dir Waves Ship Positions

Salten

Last reported at 2014-Dec-17 15:22 UTC. Time now 2014-Dec-18 05:48 UTC.
Position N 67°10' E 014°02'.

Length 41 m; draft 1.5 m.

Type: High speed craft. MMSI: 259387000.

Date/timePositionNaut miles runAvg speedWind from/ knotsBaromVisibWave heightAir tempDewpointWater temp
2014-Dec-17 15:22N 67°10' E 014°02'1114.0
2014-Dec-17 14:34N 67°17' E 014°24'1 0.7
2014-Dec-17 13:34N 67°17' E 014°22'0 0.0
2014-Dec-17 12:34N 67°17' E 014°22'0 0.0
2014-Dec-17 11:34N 67°17' E 014°22'0 0.0
2014-Dec-17 10:34N 67°17' E 014°22'0 0.0
2014-Dec-17 09:34N 67°17' E 014°22'10 9.7
2014-Dec-17 08:34N 67°26' E 014°33'3 0.2
2014-Dec-16 16:34N 67°25' E 014°26'8 7.9
2014-Dec-16 15:34N 67°17' E 014°22'0 0.0
2014-Dec-16 14:34N 67°17' E 014°22'0 0.0
2014-Dec-16 13:33N 67°17' E 014°22'0 0.0
2014-Dec-16 12:34N 67°17' E 014°22'0 0.0
2014-Dec-16 11:30N 67°17' E 014°22'5814.2
2014-Dec-16 07:24N 66°29' E 012°58'9 0.7
2014-Dec-15 19:29N 66°21' E 012°51'5313.3
2014-Dec-15 15:30N 67°06' E 013°59'1414.9
2014-Dec-15 14:34N 67°17' E 014°23'0 0.2
2014-Dec-15 13:34N 67°17' E 014°22'0 0.0
2014-Dec-15 12:33N 67°17' E 014°22'0 0.0
2014-Dec-15 11:34N 67°17' E 014°22'5714.0
2014-Dec-15 07:27N 66°30' E 012°59'10 0.7
2014-Dec-14 16:18N 66°20' E 012°53'5714.5
2014-Dec-14 12:22N 67°10' E 014°03'1113.0
2014-Dec-14 11:34N 67°17' E 014°22'0 0.0
2014-Dec-14 10:34N 67°17' E 014°22'0 0.0
2014-Dec-14 09:34N 67°17' E 014°22'0 0.0
2014-Dec-14 08:34N 67°17' E 014°22'0 0.0
2014-Dec-14 07:34N 67°17' E 014°22'0 0.0
2014-Dec-14 06:34N 67°17' E 014°22'0 0.0
2014-Dec-14 05:34N 67°17' E 014°22'0 0.0
2014-Dec-14 04:34N 67°17' E 014°22'0 0.0
2014-Dec-14 03:34N 67°17' E 014°22'0 0.0
2014-Dec-14 02:34N 67°17' E 014°22'0 0.0
2014-Dec-14 01:34N 67°17' E 014°22'0 0.0
2014-Dec-14 00:34N 67°17' E 014°22'0 0.0
2014-Dec-13 23:34N 67°17' E 014°22'0 0.0
2014-Dec-13 22:34N 67°17' E 014°22'0 0.0
2014-Dec-13 21:34N 67°17' E 014°22'0 0.0
2014-Dec-13 20:34N 67°17' E 014°22'0 0.0
2014-Dec-13 19:34N 67°17' E 014°22'0 0.0
2014-Dec-13 18:34N 67°17' E 014°22'0 0.0
2014-Dec-13 17:34N 67°17' E 014°22'0 0.0
2014-Dec-13 16:34N 67°17' E 014°22'0 0.0
2014-Dec-13 15:34N 67°17' E 014°22'0 0.0
2014-Dec-13 14:34N 67°17' E 014°22'0 0.0
2014-Dec-13 13:34N 67°17' E 014°22'0 0.0
2014-Dec-13 12:34N 67°17' E 014°22'0 0.0
2014-Dec-13 11:34N 67°17' E 014°22'0 0.0
2014-Dec-13 10:34N 67°17' E 014°22'1 0.6
2014-Dec-13 09:34N 67°17' E 014°24'12 0.8
2014-Dec-12 17:34N 67°29' E 014°36'1313.0
2014-Dec-12 16:34N 67°17' E 014°22'8 4.1
2014-Dec-12 14:34N 67°25' E 014°28'8 8.3
2014-Dec-12 13:34N 67°17' E 014°22'0 0.0
2014-Dec-12 12:34N 67°17' E 014°22'0 0.0
2014-Dec-12 11:34N 67°17' E 014°22'0 0.0
2014-Dec-12 10:34N 67°17' E 014°22'0 0.0
2014-Dec-12 09:34N 67°17' E 014°22'1211.6
2014-Dec-12 08:32N 67°28' E 014°35'11 0.7
2014-Dec-11 17:05N 67°38' E 014°46'1528.3
2014-Dec-11 16:34N 67°24' E 014°31'8 7.8
2014-Dec-11 15:33N 67°17' E 014°22'0 0.0
2014-Dec-11 14:33N 67°17' E 014°22'0 0.0
2014-Dec-11 13:34N 67°17' E 014°22'0 0.0
2014-Dec-11 12:33N 67°17' E 014°22'0 0.0
2014-Dec-11 11:33N 67°17' E 014°22'8 8.0
2014-Dec-11 10:33N 67°12' E 014°08'3617.0
2014-Dec-11 08:26N 66°42' E 013°16'1314.4
2014-Dec-11 07:33N 66°31' E 013°00'2417.5
2014-Dec-11 06:10N 66°07' E 012°46'0 0.0
2014-Dec-10 20:22N 66°07' E 012°45'1719.4
2014-Dec-10 19:30N 66°24' E 012°49'4112.1
2014-Dec-10 16:07N 66°60' E 013°37'1222.1
2014-Dec-10 15:33N 67°07' E 014°03'1312.9
2014-Dec-10 14:33N 67°17' E 014°24'1 0.7
2014-Dec-10 13:33N 67°17' E 014°22'0 0.0
2014-Dec-10 12:33N 67°17' E 014°22'0 0.0
2014-Dec-10 11:33N 67°17' E 014°22'0 0.0
2014-Dec-10 10:33N 67°17' E 014°22'0 0.0
2014-Dec-10 09:33N 67°17' E 014°22'21 1.4
2014-Dec-09 18:07N 67°38' E 014°39'1831.8
2014-Dec-09 17:34N 67°21' E 014°24'4 3.8
2014-Dec-09 16:33N 67°17' E 014°22'0 0.0
2014-Dec-09 15:33N 67°17' E 014°22'0 0.0
2014-Dec-09 14:33N 67°17' E 014°22'0 0.0
2014-Dec-09 13:33N 67°17' E 014°22'0 0.0
2014-Dec-09 12:33N 67°17' E 014°22'0 0.0
2014-Dec-09 11:33N 67°17' E 014°22'1110.6
2014-Dec-09 10:32N 67°10' E 014°02'4615.1
2014-Dec-09 07:30N 66°31' E 012°59'10 0.9
2014-Dec-08 19:33N 66°21' E 012°59'5112.7
2014-Dec-08 15:32N 67°06' E 013°58'1414.9
2014-Dec-08 14:33N 67°17' E 014°22'0 0.0
2014-Dec-08 13:33N 67°17' E 014°22'0 0.0
2014-Dec-08 12:33N 67°17' E 014°22'0 0.0
2014-Dec-08 11:33N 67°17' E 014°22'8 8.3
2014-Dec-08 10:33N 67°11' E 014°07'5415.9
2014-Dec-08 07:07N 66°26' E 012°49'6 0.4
2014-Dec-07 16:21N 66°20' E 012°52'  

Dump ship's entire track history